createdAt,value
2018-05-24T00:00:03.087Z,19.07
2018-05-24T00:02:06.441Z,19.09
2018-05-24T00:04:09.774Z,19.16
2018-05-24T00:06:13.128Z,19.20
2018-05-24T00:08:16.605Z,19.16
2018-05-24T00:10:19.964Z,19.18
2018-05-24T00:12:23.278Z,19.13
2018-05-24T00:14:26.629Z,19.06
2018-05-24T00:16:30.004Z,19.14
2018-05-24T00:18:33.475Z,19.09
2018-05-24T00:20:36.865Z,19.03
2018-05-24T00:22:40.269Z,19.02
2018-05-24T00:24:43.640Z,19.10
2018-05-24T00:26:47.015Z,19.02
2018-05-24T00:28:50.700Z,19.03
2018-05-24T00:30:54.835Z,19.43
2018-05-24T00:32:58.375Z,19.19
2018-05-24T00:35:01.741Z,19.08
2018-05-24T00:37:05.092Z,19.02
2018-05-24T00:39:09.410Z,19.14
2018-05-24T00:41:13.603Z,19.26
2018-05-24T00:43:19.043Z,19.12
2018-05-24T00:45:23.180Z,19.05
2018-05-24T00:47:27.409Z,19.05
2018-05-24T00:49:30.985Z,19.05
2018-05-24T00:51:35.187Z,19.16
2018-05-24T00:53:38.675Z,19.14
2018-05-24T00:55:42.780Z,19.15
2018-05-24T00:57:46.152Z,19.12
2018-05-24T00:59:50.094Z,19.09
2018-05-24T01:01:53.444Z,19.20
2018-05-24T01:03:56.785Z,19.15
2018-05-24T01:06:00.848Z,19.08
2018-05-24T01:08:04.307Z,19.07
2018-05-24T01:10:07.646Z,19.10
2018-05-24T01:12:11.082Z,19.14
2018-05-24T01:14:15.174Z,19.17
2018-05-24T01:16:18.505Z,19.23
2018-05-24T01:18:21.859Z,19.28
2018-05-24T01:20:25.192Z,19.21
2018-05-24T01:22:28.542Z,19.24
2018-05-24T01:24:31.870Z,19.33
2018-05-24T01:26:35.216Z,19.24
2018-05-24T01:28:38.564Z,19.20
2018-05-24T01:30:41.894Z,19.17
2018-05-24T01:32:45.402Z,19.00
2018-05-24T01:34:48.916Z,19.06
2018-05-24T01:37:09.715Z,19.09
2018-05-24T01:39:13.045Z,19.09
2018-05-24T01:41:16.608Z,19.05
2018-05-24T01:43:20.722Z,19.14
2018-05-24T01:45:24.069Z,19.11
2018-05-24T01:47:27.573Z,19.12
2018-05-24T01:49:31.162Z,19.14
2018-05-24T01:51:34.459Z,19.04
2018-05-24T01:53:37.861Z,19.10
2018-05-24T01:55:41.170Z,19.23
2018-05-24T01:57:44.530Z,19.14
2018-05-24T01:59:47.937Z,19.31
2018-05-24T02:01:51.237Z,19.27
2018-05-24T02:03:54.573Z,19.12
2018-05-24T02:05:57.886Z,19.11
2018-05-24T02:08:01.188Z,19.08
2018-05-24T02:10:04.533Z,19.23
2018-05-24T02:12:07.860Z,19.26
2018-05-24T02:14:11.177Z,19.27
2018-05-24T02:16:14.494Z,19.20
2018-05-24T02:18:17.837Z,19.17
2018-05-24T02:20:21.144Z,19.17
2018-05-24T02:22:24.462Z,19.16
2018-05-24T02:24:28.653Z,19.32
2018-05-24T02:26:31.975Z,19.20
2018-05-24T02:28:35.300Z,19.22
2018-05-24T02:30:38.885Z,19.18
2018-05-24T02:32:42.215Z,19.24
2018-05-24T02:34:45.719Z,19.10
2018-05-24T02:36:49.063Z,19.22
2018-05-24T02:38:52.364Z,19.19
2018-05-24T02:40:55.786Z,19.07
2018-05-24T02:42:59.131Z,19.13
2018-05-24T02:45:03.293Z,19.19
2018-05-24T02:47:06.629Z,19.08
2018-05-24T02:49:09.975Z,19.09
2018-05-24T02:51:13.295Z,19.15
2018-05-24T02:53:16.632Z,19.16
2018-05-24T02:55:19.946Z,19.06
2018-05-24T02:57:23.267Z,18.94
2018-05-24T02:59:26.619Z,18.93
2018-05-24T03:01:29.946Z,19.02
2018-05-24T03:03:33.294Z,18.96
2018-05-24T03:05:36.610Z,18.89
2018-05-24T03:07:39.943Z,18.98
2018-05-24T03:09:44.062Z,19.14
2018-05-24T03:11:47.380Z,19.15
2018-05-24T03:13:50.763Z,19.00
2018-05-24T03:15:54.081Z,18.93
2018-05-24T03:17:57.410Z,18.91
2018-05-24T03:20:00.754Z,19.00
2018-05-24T03:22:04.095Z,19.04
2018-05-24T03:24:08.426Z,19.03
2018-05-24T03:26:11.784Z,19.01
2018-05-24T03:28:15.112Z,19.07
2018-05-24T03:30:18.459Z,19.03
2018-05-24T03:32:21.779Z,18.83
2018-05-24T03:34:25.921Z,18.90
2018-05-24T03:36:29.242Z,18.77
2018-05-24T03:38:32.595Z,18.70
2018-05-24T03:40:35.971Z,18.73
2018-05-24T03:42:40.091Z,18.73
2018-05-24T03:44:44.245Z,18.70
2018-05-24T03:46:47.603Z,18.39
2018-05-24T03:48:50.923Z,18.49
2018-05-24T03:50:54.236Z,18.43
2018-05-24T03:52:57.559Z,18.45
2018-05-24T03:55:01.696Z,18.24
2018-05-24T03:57:05.008Z,18.35
2018-05-24T04:02:31.179Z,18.21
2018-05-24T04:04:58.760Z,18.20
2018-05-24T04:07:02.832Z,18.16
2018-05-24T04:09:06.308Z,18.01
2018-05-24T04:11:09.626Z,18.12
2018-05-24T04:13:12.956Z,18.04
2018-05-24T04:15:17.059Z,18.04
2018-05-24T04:17:20.410Z,17.88
2018-05-24T04:19:23.810Z,17.90
2018-05-24T04:21:27.212Z,17.90
2018-05-24T04:23:30.535Z,17.82
2018-05-24T04:25:34.800Z,17.63
2018-05-24T04:27:38.154Z,17.84
2018-05-24T04:29:42.247Z,17.75
2018-05-24T04:31:46.660Z,18.03
2018-05-24T04:33:51.784Z,17.86
2018-05-24T04:35:55.145Z,17.74
2018-05-24T04:37:58.876Z,17.55
2018-05-24T04:40:02.580Z,17.50
2018-05-24T04:42:05.953Z,17.53
2018-05-24T04:44:09.310Z,17.36
2018-05-24T04:46:12.802Z,17.57
2018-05-24T04:48:16.143Z,17.29
2018-05-24T04:50:19.526Z,17.15
2018-05-24T04:52:23.680Z,16.95
2018-05-24T04:54:28.502Z,16.83
2018-05-24T04:56:32.609Z,16.71
2018-05-24T04:58:36.748Z,16.75
2018-05-24T05:00:40.386Z,16.73
2018-05-24T05:02:43.756Z,16.78
2018-05-24T05:04:47.888Z,16.70
2018-05-24T05:06:51.213Z,16.67
2018-05-24T05:08:55.295Z,16.49
2018-05-24T05:10:58.647Z,16.24
2018-05-24T05:13:02.015Z,16.28
2018-05-24T05:15:05.450Z,16.19
2018-05-24T05:17:08.825Z,16.21
2018-05-24T05:19:12.240Z,16.18
2018-05-24T05:21:15.559Z,16.05
2018-05-24T05:23:18.970Z,16.17
2018-05-24T05:25:23.985Z,16.15
2018-05-24T05:27:28.181Z,16.15
2018-05-24T05:29:31.551Z,15.99
2018-05-24T05:31:35.324Z,15.87
2018-05-24T05:33:38.671Z,16.00
2018-05-24T05:35:42.032Z,15.97
2018-05-24T05:37:45.449Z,15.98
2018-05-24T05:39:48.918Z,15.98
2018-05-24T05:41:52.323Z,15.92
2018-05-24T05:43:55.950Z,15.89
2018-05-24T05:45:59.429Z,15.90
2018-05-24T05:48:02.845Z,15.71
2018-05-24T05:50:06.239Z,15.69
2018-05-24T05:52:09.694Z,15.61
2018-05-24T05:54:12.935Z,15.76
2018-05-24T05:56:16.326Z,15.71
2018-05-24T05:58:19.635Z,15.69
2018-05-24T06:00:24.603Z,15.67
2018-05-24T06:02:27.949Z,15.73
2018-05-24T06:04:32.129Z,15.77
2018-05-24T06:06:35.541Z,15.69
2018-05-24T06:08:38.985Z,15.87
2018-05-24T06:10:42.415Z,15.94
2018-05-24T06:12:45.740Z,16.07
2018-05-24T06:15:06.237Z,15.94
2018-05-24T06:17:09.788Z,16.18
2018-05-24T06:19:13.187Z,16.20
2018-05-24T06:21:16.508Z,16.26
2018-05-24T06:23:19.908Z,16.30
2018-05-24T06:25:23.337Z,16.34
2018-05-24T06:27:26.679Z,16.47
2018-05-24T06:29:29.972Z,16.51
2018-05-24T06:31:33.304Z,16.64
2018-05-24T06:33:36.663Z,16.64
2018-05-24T06:35:40.030Z,16.67
2018-05-24T06:37:43.403Z,16.66
2018-05-24T06:39:46.779Z,16.72
2018-05-24T06:41:50.203Z,16.78
2018-05-24T06:43:53.599Z,16.76
2018-05-24T06:45:56.972Z,16.78
2018-05-24T06:48:00.300Z,16.81
2018-05-24T06:50:03.645Z,16.95
2018-05-24T06:52:06.971Z,17.06
2018-05-24T06:54:10.334Z,17.17
2018-05-24T06:56:13.720Z,17.23
2018-05-24T06:58:17.259Z,17.32
2018-05-24T07:00:20.600Z,17.40
2018-05-24T07:02:24.295Z,17.35
2018-05-24T07:04:27.719Z,17.41
2018-05-24T07:06:31.093Z,17.23
2018-05-24T07:08:34.533Z,17.24
2018-05-24T07:10:39.630Z,17.34
2018-05-24T07:12:43.060Z,17.25
2018-05-24T07:14:46.469Z,17.19
2018-05-24T07:16:50.575Z,17.15
2018-05-24T07:18:53.935Z,17.08
2018-05-24T07:20:57.611Z,17.07
2018-05-24T07:23:01.006Z,16.97
2018-05-24T07:25:04.413Z,16.96
2018-05-24T07:27:08.016Z,16.95
2018-05-24T07:29:11.372Z,17.08
2018-05-24T07:31:14.765Z,17.29
2018-05-24T07:33:18.242Z,17.40
2018-05-24T07:35:21.578Z,17.43
2018-05-24T07:37:24.919Z,17.46
2018-05-24T07:39:28.309Z,17.83
2018-05-24T07:41:31.687Z,17.81
2018-05-24T07:43:35.008Z,17.94
2018-05-24T07:45:38.368Z,18.06
2018-05-24T07:47:41.686Z,18.29
2018-05-24T07:49:45.028Z,18.32
2018-05-24T07:51:48.381Z,18.48
2018-05-24T07:53:51.721Z,18.55
2018-05-24T07:55:55.627Z,18.63
2018-05-24T07:57:59.546Z,18.75
2018-05-24T08:00:02.972Z,18.89
2018-05-24T08:02:06.303Z,19.00
2018-05-24T08:04:09.722Z,19.14
2018-05-24T08:06:13.071Z,19.01
2018-05-24T08:08:16.486Z,19.18
2018-05-24T08:10:20.008Z,19.39
2018-05-24T08:12:23.403Z,19.46
2018-05-24T08:14:27.132Z,19.64
2018-05-24T08:16:30.493Z,19.50
2018-05-24T08:18:33.850Z,19.75
2018-05-24T08:20:37.176Z,19.95
2018-05-24T08:22:41.021Z,20.05
2018-05-24T08:24:44.370Z,20.25
2018-05-24T08:26:47.702Z,20.28
2018-05-24T08:28:51.026Z,20.52
2018-05-24T08:30:54.362Z,20.63
2018-05-24T08:32:57.704Z,20.73
2018-05-24T08:35:01.116Z,20.75
2018-05-24T08:37:04.417Z,20.81
2018-05-24T08:39:07.776Z,21.03
2018-05-24T08:41:12.376Z,21.00
2018-05-24T08:43:15.724Z,21.15
2018-05-24T08:45:19.041Z,21.11
2018-05-24T08:47:22.511Z,21.06
2018-05-24T08:49:25.787Z,21.04
2018-05-24T08:51:29.106Z,21.02
2018-05-24T08:53:32.550Z,20.92
2018-05-24T08:55:35.900Z,21.08
2018-05-24T08:57:40.091Z,21.03
2018-05-24T08:59:43.596Z,21.27
2018-05-24T09:01:47.854Z,21.07
2018-05-24T09:03:51.249Z,21.21
2018-05-24T09:05:54.655Z,21.11
2018-05-24T09:07:57.983Z,21.05
2018-05-24T09:10:01.341Z,20.89
2018-05-24T09:12:04.760Z,20.92
2018-05-24T09:14:09.225Z,21.17
2018-05-24T09:16:12.653Z,21.28
2018-05-24T09:18:15.989Z,21.25
2018-05-24T09:20:19.487Z,21.27
2018-05-24T09:22:22.808Z,21.14
2018-05-24T09:24:26.199Z,21.05
2018-05-24T09:26:30.361Z,20.97
2018-05-24T09:28:33.699Z,20.82
2018-05-24T09:30:38.172Z,20.93
2018-05-24T09:32:41.625Z,20.74
2018-05-24T09:34:45.097Z,20.76
2018-05-24T09:36:48.693Z,20.74
2018-05-24T09:38:52.076Z,20.40
2018-05-24T09:40:55.477Z,20.61
2018-05-24T09:42:58.876Z,20.42
2018-05-24T09:45:02.233Z,20.59
2018-05-24T09:47:05.589Z,20.72
2018-05-24T09:49:09.145Z,20.71
2018-05-24T09:51:12.518Z,20.77
2018-05-24T09:53:15.951Z,20.75
2018-05-24T09:55:19.340Z,20.74
2018-05-24T09:57:22.742Z,20.76
2018-05-24T09:59:26.088Z,20.76
2018-05-24T10:01:29.488Z,20.93
2018-05-24T10:03:32.968Z,20.93
2018-05-24T10:05:36.446Z,21.05
2018-05-24T10:07:39.914Z,21.13
2018-05-24T10:09:43.387Z,20.96
2018-05-24T10:11:46.810Z,21.12
2018-05-24T10:13:50.151Z,21.26
2018-05-24T10:15:53.500Z,21.43
2018-05-24T10:17:56.885Z,21.66
2018-05-24T10:20:00.373Z,21.39
2018-05-24T10:22:03.783Z,21.58
2018-05-24T10:24:07.235Z,21.49
2018-05-24T10:26:10.777Z,21.70
2018-05-24T10:28:14.225Z,21.38
2018-05-24T10:30:17.591Z,21.44
2018-05-24T10:32:20.975Z,21.62
2018-05-24T10:34:24.437Z,21.44
2018-05-24T10:36:27.812Z,21.77
2018-05-24T10:38:31.496Z,21.75
2018-05-24T10:40:35.598Z,21.30
2018-05-24T10:42:39.249Z,21.77
2018-05-24T10:44:42.824Z,22.06
2018-05-24T10:46:46.363Z,22.29
2018-05-24T10:48:49.859Z,22.30
2018-05-24T10:50:53.311Z,22.22
2018-05-24T10:52:56.615Z,22.74
2018-05-24T10:55:00.713Z,23.09
2018-05-24T10:57:04.862Z,23.17
2018-05-24T10:59:08.204Z,23.23
2018-05-24T11:01:11.725Z,23.26
2018-05-24T11:03:15.099Z,23.39
2018-05-24T11:05:18.504Z,23.21
2018-05-24T11:07:22.642Z,22.90
2018-05-24T11:09:26.078Z,22.98
2018-05-24T11:11:29.500Z,22.95
2018-05-24T11:13:33.669Z,22.99
2018-05-24T11:15:37.012Z,23.17
2018-05-24T11:17:40.371Z,23.26
2018-05-24T11:19:43.857Z,23.32
2018-05-24T11:21:47.295Z,23.24
2018-05-24T11:23:50.782Z,23.25
2018-05-24T11:25:54.177Z,23.34
2018-05-24T11:27:58.321Z,23.62
2018-05-24T11:30:01.701Z,23.71
2018-05-24T11:32:05.176Z,23.86
2018-05-24T11:34:08.611Z,23.92
2018-05-24T11:36:11.999Z,23.86
2018-05-24T11:38:15.330Z,24.09
2018-05-24T11:40:18.727Z,24.23
2018-05-24T11:42:22.130Z,24.39
2018-05-24T11:44:25.537Z,24.51
2018-05-24T11:46:28.942Z,24.43
2018-05-24T11:48:32.423Z,24.38
2018-05-24T11:50:36.559Z,24.53
2018-05-24T11:52:39.891Z,24.45
2018-05-24T11:54:43.281Z,24.36
2018-05-24T11:56:46.804Z,24.51
2018-05-24T11:58:52.067Z,24.27
2018-05-24T12:00:56.224Z,24.41
2018-05-24T12:02:59.590Z,24.27
2018-05-24T12:05:02.946Z,24.29
2018-05-24T12:07:07.167Z,24.41
2018-05-24T12:09:10.557Z,24.25
2018-05-24T12:11:14.718Z,24.28
2018-05-24T12:13:18.106Z,24.10
2018-05-24T12:15:21.587Z,24.16
2018-05-24T12:17:24.988Z,23.79
2018-05-24T12:19:28.356Z,23.79
2018-05-24T12:21:31.768Z,23.77
2018-05-24T12:23:35.201Z,23.76
2018-05-24T12:25:38.694Z,23.91
2018-05-24T12:27:42.675Z,24.13
2018-05-24T12:29:46.146Z,24.20
2018-05-24T12:31:49.526Z,24.40
2018-05-24T12:33:53.675Z,24.78
2018-05-24T12:35:57.068Z,25.08
2018-05-24T12:38:00.462Z,25.29
2018-05-24T12:40:03.909Z,25.26
2018-05-24T12:42:07.303Z,25.31
2018-05-24T12:44:10.722Z,25.32
2018-05-24T12:46:14.078Z,25.18
2018-05-24T12:48:18.457Z,25.14
2018-05-24T12:50:21.860Z,25.29
2018-05-24T12:52:25.289Z,25.57
2018-05-24T12:54:29.000Z,25.33
2018-05-24T12:56:33.118Z,25.06
2018-05-24T12:58:38.600Z,25.35
2018-05-24T13:00:42.226Z,25.17
2018-05-24T13:02:45.703Z,25.25
2018-05-24T13:04:49.066Z,25.12
2018-05-24T13:06:52.585Z,25.24
2018-05-24T13:08:55.925Z,25.17
2018-05-24T13:11:00.262Z,25.14
2018-05-24T13:13:03.652Z,25.24
2018-05-24T13:15:07.027Z,25.32
2018-05-24T13:17:11.156Z,25.05
2018-05-24T13:19:14.497Z,25.11
2018-05-24T13:21:17.979Z,24.93
2018-05-24T13:23:21.359Z,24.98
2018-05-24T13:25:24.706Z,25.01
2018-05-24T13:27:28.031Z,25.10
2018-05-24T13:29:31.452Z,25.16
2018-05-24T13:31:34.835Z,25.42
2018-05-24T13:33:38.248Z,25.61
2018-05-24T13:35:41.597Z,25.65
2018-05-24T13:37:44.978Z,25.41
2018-05-24T13:39:48.358Z,25.41
2018-05-24T13:41:52.630Z,25.05
2018-05-24T13:43:56.041Z,25.13
2018-05-24T13:46:00.237Z,25.08
2018-05-24T13:48:03.553Z,25.21
2018-05-24T13:50:07.001Z,24.97
2018-05-24T13:52:10.500Z,24.97
2018-05-24T13:54:13.911Z,24.88
2018-05-24T13:56:17.300Z,24.99
2018-05-24T13:58:20.844Z,24.87
2018-05-24T14:00:24.234Z,24.91
2018-05-24T14:02:27.680Z,24.98
2018-05-24T14:04:31.911Z,25.02
2018-05-24T14:08:38.796Z,25.01
2018-05-24T14:10:42.690Z,25.15
2018-05-24T14:12:47.263Z,25.28
2018-05-24T14:14:50.668Z,24.99
2018-05-24T14:16:54.091Z,25.09
2018-05-24T14:18:58.076Z,24.92
2018-05-24T14:21:01.952Z,24.75
2018-05-24T14:23:05.308Z,24.53
2018-05-24T14:25:08.783Z,24.37
2018-05-24T14:27:12.194Z,24.23
2018-05-24T14:29:15.961Z,23.93
2018-05-24T14:31:19.404Z,23.72
2018-05-24T14:33:23.609Z,23.76
2018-05-24T14:35:28.269Z,23.86
2018-05-24T14:37:33.068Z,23.69
2018-05-24T14:39:36.729Z,22.90
2018-05-24T14:41:40.540Z,23.54
2018-05-24T14:43:43.935Z,23.49
2018-05-24T14:45:50.574Z,23.32
2018-05-24T14:47:57.838Z,23.00
2018-05-24T14:50:01.363Z,23.03
2018-05-24T14:52:04.903Z,22.87
2018-05-24T14:54:08.348Z,22.75
2018-05-24T14:56:12.458Z,22.71
2018-05-24T14:58:15.883Z,22.84
2018-05-24T15:00:19.352Z,22.44
2018-05-24T15:02:22.847Z,22.14
2018-05-24T15:04:26.432Z,21.60
2018-05-24T15:06:30.007Z,21.55
2018-05-24T15:08:33.362Z,21.33
2018-05-24T15:10:36.790Z,21.12
2018-05-24T15:12:40.172Z,20.85
2018-05-24T15:14:43.574Z,20.79
2018-05-24T15:16:47.132Z,20.60
2018-05-24T15:18:50.649Z,20.30
2018-05-24T15:20:54.114Z,20.40
2018-05-24T15:22:57.487Z,20.55
2018-05-24T15:25:00.936Z,20.47
2018-05-24T15:27:05.105Z,20.52
2018-05-24T15:29:08.513Z,20.57
2018-05-24T15:31:11.900Z,20.61
2018-05-24T15:33:15.255Z,20.63
2018-05-24T15:35:18.667Z,20.66
2018-05-24T15:37:22.047Z,20.73
2018-05-24T15:39:25.490Z,20.56
2018-05-24T15:41:28.900Z,20.81
2018-05-24T15:43:32.318Z,20.90
2018-05-24T15:45:35.769Z,20.92
2018-05-24T15:47:39.187Z,20.97
2018-05-24T15:49:42.524Z,20.92
2018-05-24T15:51:45.971Z,21.13
2018-05-24T15:53:49.436Z,21.12
2018-05-24T15:55:52.896Z,21.20
2018-05-24T15:57:56.289Z,21.24
2018-05-24T16:00:00.657Z,21.28
2018-05-24T16:02:04.638Z,21.29
2018-05-24T16:04:08.282Z,21.35
2018-05-24T16:06:12.574Z,21.34
2018-05-24T16:08:16.078Z,21.43
2018-05-24T16:10:19.715Z,21.46
2018-05-24T16:12:25.326Z,21.62
2018-05-24T16:14:30.336Z,21.80
2018-05-24T16:16:33.783Z,21.90
2018-05-24T16:18:37.979Z,21.96
2018-05-24T16:20:41.398Z,22.19
2018-05-24T16:22:44.815Z,22.31
2018-05-24T16:24:48.292Z,22.36
2018-05-24T16:26:51.874Z,22.38
2018-05-24T16:28:55.441Z,22.45
2018-05-24T16:31:00.921Z,22.60
2018-05-24T16:33:05.510Z,22.80
2018-05-24T16:35:09.269Z,22.73
2018-05-24T16:37:14.226Z,22.95
2018-05-24T16:39:18.565Z,23.28
2018-05-24T16:41:22.305Z,23.65
2018-05-24T16:43:26.383Z,24.00
2018-05-24T16:45:31.032Z,24.01
2018-05-24T16:47:34.524Z,23.79
2018-05-24T16:49:38.721Z,23.93
2018-05-24T16:51:42.199Z,23.79
2018-05-24T16:53:46.527Z,23.64
2018-05-24T16:55:49.972Z,23.73
2018-05-24T16:57:54.306Z,23.64
2018-05-24T17:00:04.128Z,23.63
2018-05-24T17:02:08.106Z,23.69
2018-05-24T17:04:11.689Z,23.63
2018-05-24T17:06:15.878Z,23.62
2018-05-24T17:08:20.740Z,23.28
2018-05-24T17:10:25.295Z,23.23
2018-05-24T17:12:29.329Z,23.28
2018-05-24T17:14:33.316Z,23.22
2018-05-24T17:16:37.592Z,22.95
2018-05-24T17:18:42.935Z,22.87
2018-05-24T17:20:49.394Z,22.94
2018-05-24T17:22:55.407Z,22.85
2018-05-24T17:24:59.703Z,23.08
2018-05-24T17:27:03.909Z,22.93
2018-05-24T17:29:07.502Z,22.88
2018-05-24T17:31:10.915Z,22.89
2018-05-24T17:33:14.808Z,22.82
2018-05-24T17:35:18.225Z,23.06
2018-05-24T17:37:21.715Z,22.92
2018-05-24T17:39:26.644Z,22.90
2018-05-24T17:41:30.047Z,22.76
2018-05-24T17:43:33.613Z,22.88
2018-05-24T17:45:37.802Z,22.62
2018-05-24T17:47:41.200Z,22.50
2018-05-24T17:49:45.630Z,22.72
2018-05-24T17:51:49.038Z,22.59
2018-05-24T17:53:52.422Z,22.41
2018-05-24T17:55:55.878Z,22.39
2018-05-24T17:57:59.581Z,22.45
2018-05-24T18:00:03.685Z,22.15
2018-05-24T18:02:07.322Z,22.12
2018-05-24T18:04:10.852Z,22.06
2018-05-24T18:06:14.906Z,21.87
2018-05-24T18:08:18.453Z,21.70
2018-05-24T18:10:21.962Z,21.75
2018-05-24T18:12:29.477Z,21.78
2018-05-24T18:14:34.101Z,21.09
2018-05-24T18:16:37.623Z,21.49
2018-05-24T18:18:41.004Z,21.43
2018-05-24T18:20:44.514Z,21.51
2018-05-24T18:22:48.910Z,21.24
2018-05-24T18:24:52.376Z,20.84
2018-05-24T18:26:56.695Z,21.30
2018-05-24T18:29:00.475Z,21.42
2018-05-24T18:31:04.939Z,21.41
2018-05-24T18:33:09.289Z,21.11
2018-05-24T18:35:12.690Z,21.16
2018-05-24T18:37:16.099Z,21.14
2018-05-24T18:39:19.435Z,21.13
2018-05-24T18:41:23.778Z,21.17
2018-05-24T18:43:27.391Z,21.08
2018-05-24T18:45:30.869Z,21.04
2018-05-24T18:47:34.232Z,21.03
2018-05-24T18:49:37.588Z,20.99
2018-05-24T18:51:43.101Z,20.90
2018-05-24T18:53:50.485Z,20.78
2018-05-24T18:55:54.825Z,20.79
2018-05-24T18:57:58.209Z,20.81
2018-05-24T19:00:04.975Z,20.91
2018-05-24T19:02:09.319Z,20.94
2018-05-24T19:04:13.946Z,20.95
2018-05-24T19:06:18.127Z,20.95
2018-05-24T19:08:21.574Z,20.98
2018-05-24T19:10:25.139Z,20.92
2018-05-24T19:12:28.816Z,20.90
2018-05-24T19:14:32.472Z,20.82
2018-05-24T19:16:35.795Z,20.74
2018-05-24T19:18:39.197Z,20.76
2018-05-24T19:20:42.700Z,20.68
2018-05-24T19:22:46.095Z,20.77
2018-05-24T19:24:49.502Z,20.50
2018-05-24T19:26:52.839Z,20.61
2018-05-24T19:28:56.275Z,20.68
2018-05-24T19:30:59.864Z,20.61
2018-05-24T19:33:03.218Z,20.52
2018-05-24T19:35:06.724Z,20.45
2018-05-24T19:37:10.413Z,20.41
2018-05-24T19:39:13.816Z,20.45
2018-05-24T19:41:17.269Z,20.43
2018-05-24T19:43:21.555Z,20.38
2018-05-24T19:45:25.379Z,20.40
2018-05-24T19:47:28.813Z,20.33
2018-05-24T19:49:32.242Z,20.31
2018-05-24T19:51:35.730Z,20.55
2018-05-24T19:53:40.408Z,20.53
2018-05-24T19:55:44.849Z,20.38
2018-05-24T19:57:48.618Z,20.36
2018-05-24T19:59:52.595Z,20.28
2018-05-24T20:01:57.036Z,20.27
2018-05-24T20:04:01.174Z,20.24
2018-05-24T20:06:05.162Z,20.40
2018-05-24T20:08:08.664Z,20.36
2018-05-24T20:10:12.262Z,20.47
2018-05-24T20:12:15.696Z,20.41
2018-05-24T20:14:20.076Z,20.25
2018-05-24T20:16:23.525Z,20.20
2018-05-24T20:18:27.626Z,20.14
2018-05-24T20:20:31.139Z,20.38
2018-05-24T20:22:35.448Z,20.21
2018-05-24T20:24:39.001Z,19.99
2018-05-24T20:26:43.112Z,20.10
2018-05-24T20:28:46.856Z,20.11
2018-05-24T20:30:50.238Z,20.10
2018-05-24T20:32:53.958Z,20.06
2018-05-24T20:34:57.485Z,19.99
2018-05-24T20:37:01.273Z,20.17
2018-05-24T20:39:06.959Z,20.10
2018-05-24T20:41:10.465Z,20.11
2018-05-24T20:43:13.988Z,20.16
2018-05-24T20:45:17.816Z,19.99
2018-05-24T20:47:22.427Z,20.17
2018-05-24T20:49:26.430Z,19.82
2018-05-24T20:51:30.316Z,19.96
2018-05-24T20:53:33.812Z,19.90
2018-05-24T20:55:37.780Z,19.89
2018-05-24T20:57:42.143Z,19.74
2018-05-24T20:59:45.738Z,19.38
2018-05-24T21:01:49.361Z,19.64
2018-05-24T21:03:52.969Z,19.79
2018-05-24T21:05:56.468Z,19.79
2018-05-24T21:08:00.035Z,19.65
2018-05-24T21:10:03.491Z,19.71
2018-05-24T21:12:06.851Z,19.74
2018-05-24T21:14:10.981Z,19.67
2018-05-24T21:16:14.408Z,19.70
2018-05-24T21:18:17.940Z,19.78
2018-05-24T21:20:21.781Z,19.74
2018-05-24T21:22:25.147Z,19.77
2018-05-24T21:24:29.460Z,19.73
2018-05-24T21:26:32.956Z,19.64
2018-05-24T21:28:36.391Z,19.65
2018-05-24T21:30:39.809Z,19.52
2018-05-24T21:32:44.235Z,19.51
2018-05-24T21:34:50.535Z,18.98
2018-05-24T21:36:55.210Z,18.73
2018-05-24T21:38:59.852Z,19.39
2018-05-24T21:41:03.829Z,19.27
2018-05-24T21:43:07.833Z,19.19
2018-05-24T21:45:11.778Z,19.27
2018-05-24T21:47:15.725Z,19.12
2018-05-24T21:49:19.136Z,19.26
2018-05-24T21:51:22.844Z,19.23
2018-05-24T21:53:26.221Z,19.11
2018-05-24T21:55:29.773Z,19.10
2018-05-24T21:57:33.770Z,18.86
2018-05-24T21:59:37.343Z,19.01
2018-05-24T22:01:40.914Z,18.86
2018-05-24T22:03:45.085Z,18.93
2018-05-24T22:05:48.722Z,18.66
2018-05-24T22:07:52.201Z,18.84
2018-05-24T22:09:56.437Z,18.72
2018-05-24T22:12:00.591Z,18.42
2018-05-24T22:14:04.093Z,18.77
2018-05-24T22:16:07.528Z,18.70
2018-05-24T22:18:11.727Z,18.67
2018-05-24T22:20:15.194Z,18.66
2018-05-24T22:22:18.666Z,18.61
2018-05-24T22:24:22.105Z,18.59
2018-05-24T22:26:25.694Z,18.48
2018-05-24T22:28:29.064Z,18.52
2018-05-24T22:30:32.480Z,18.50
2018-05-24T22:32:35.839Z,18.49
2018-05-24T22:34:39.328Z,18.28
2018-05-24T22:36:42.840Z,18.37
2018-05-24T22:38:46.219Z,18.43
2018-05-24T22:40:49.608Z,18.37
2018-05-24T22:42:53.024Z,18.39
2018-05-24T22:44:56.357Z,18.42
2018-05-24T22:47:00.470Z,18.40
2018-05-24T22:49:03.812Z,18.40
2018-05-24T22:51:07.124Z,18.41
2018-05-24T22:53:10.590Z,18.32
2018-05-24T22:55:15.537Z,17.51
2018-05-24T22:57:19.038Z,18.38
2018-05-24T22:59:22.465Z,18.09
2018-05-24T23:01:25.994Z,18.25
2018-05-24T23:03:32.954Z,18.35
2018-05-24T23:05:37.212Z,18.02
2018-05-24T23:07:45.352Z,18.18
2018-05-24T23:09:49.123Z,17.86
2018-05-24T23:11:52.584Z,18.18
2018-05-24T23:13:56.049Z,18.26
2018-05-24T23:15:59.802Z,18.16
2018-05-24T23:18:03.315Z,18.01
2018-05-24T23:20:07.096Z,17.67
2018-05-24T23:22:11.554Z,17.93
2018-05-24T23:24:15.104Z,17.70
2018-05-24T23:26:18.724Z,18.03
2018-05-24T23:28:22.224Z,17.93
2018-05-24T23:30:25.934Z,18.13
2018-05-24T23:32:29.393Z,17.78
2018-05-24T23:34:33.160Z,17.94
2018-05-24T23:36:37.358Z,17.68
2018-05-24T23:38:41.204Z,17.85
2018-05-24T23:40:44.561Z,17.87
2018-05-24T23:42:48.011Z,17.70
2018-05-24T23:44:51.528Z,17.94
2018-05-24T23:46:54.919Z,17.89
2018-05-24T23:48:58.302Z,17.23
2018-05-24T23:51:01.662Z,17.93
2018-05-24T23:53:05.086Z,17.84
2018-05-24T23:55:08.704Z,17.14
2018-05-24T23:57:12.124Z,17.50
2018-05-24T23:59:15.548Z,17.84
